createdAt,value
2022-11-13T00:00:34.796Z,91.74
2022-11-13T00:01:34.785Z,91.53
2022-11-13T00:02:34.833Z,91.70
2022-11-13T00:03:34.776Z,92.11
2022-11-13T00:04:34.756Z,91.80
2022-11-13T00:05:34.741Z,91.80
2022-11-13T00:06:34.728Z,91.95
2022-11-13T00:07:34.716Z,91.64
2022-11-13T00:08:34.718Z,92.05
2022-11-13T00:09:34.696Z,91.74
2022-11-13T00:10:34.804Z,92.16
2022-11-13T00:11:34.675Z,92.36
2022-11-13T00:12:34.655Z,92.77
2022-11-13T00:13:34.665Z,92.05
2022-11-13T00:14:34.640Z,92.87
2022-11-13T00:15:34.632Z,92.73
2022-11-13T00:16:34.617Z,92.97
2022-11-13T00:17:34.615Z,92.67
2022-11-13T00:18:34.609Z,92.67
2022-11-13T00:19:34.579Z,92.87
2022-11-13T00:20:34.567Z,92.67
2022-11-13T00:21:34.554Z,93.08
2022-11-13T00:22:34.543Z,92.57
2022-11-13T00:23:34.551Z,92.77
2022-11-13T00:24:34.522Z,92.67
2022-11-13T00:25:34.510Z,92.77
2022-11-13T00:26:34.613Z,92.67
2022-11-13T00:27:34.495Z,92.77
2022-11-13T00:28:34.539Z,92.25
2022-11-13T00:29:34.464Z,92.77
2022-11-13T00:30:34.461Z,92.87
2022-11-13T00:31:34.449Z,92.46
2022-11-13T00:32:34.430Z,92.46
2022-11-13T00:34:50.763Z,92.97
2022-11-13T00:35:35.394Z,93.02
2022-11-13T00:36:34.386Z,92.71
2022-11-13T00:37:34.373Z,92.93
2022-11-13T00:38:34.361Z,92.87
2022-11-13T00:39:34.368Z,92.61
2022-11-13T00:40:34.338Z,92.36
2022-11-13T00:41:34.327Z,91.95
2022-11-13T00:42:34.441Z,91.74
2022-11-13T00:43:34.310Z,91.74
2022-11-13T00:44:34.315Z,92.16
2022-11-13T00:45:34.288Z,91.99
2022-11-13T00:46:34.277Z,91.85
2022-11-13T00:47:34.263Z,91.95
2022-11-13T00:48:34.256Z,92.16
2022-11-13T00:49:34.260Z,91.95
2022-11-13T00:50:34.243Z,92.05
2022-11-13T00:51:34.219Z,92.16
2022-11-13T00:52:34.209Z,91.74
2022-11-13T00:53:34.194Z,91.64
2022-11-13T00:54:34.194Z,91.58
2022-11-13T00:55:34.192Z,91.74
2022-11-13T00:56:34.159Z,91.44
2022-11-13T00:57:34.155Z,91.68
2022-11-13T00:58:34.335Z,91.78
2022-11-13T00:59:34.146Z,91.89
2022-11-13T01:00:34.118Z,92.16
2022-11-13T01:01:34.188Z,92.10
2022-11-13T01:02:34.114Z,92.20
2022-11-13T01:03:34.081Z,92.25
2022-11-13T01:04:34.089Z,92.16
2022-11-13T01:05:34.059Z,91.95
2022-11-13T01:06:34.053Z,92.30
2022-11-13T01:07:34.036Z,92.67
2022-11-13T01:08:34.032Z,92.20
2022-11-13T01:09:34.030Z,92.92
2022-11-13T01:10:34.010Z,92.20
2022-11-13T01:11:33.992Z,93.02
2022-11-13T01:12:33.980Z,92.77
2022-11-13T01:13:33.968Z,93.02
2022-11-13T01:14:34.076Z,93.02
2022-11-13T01:15:33.969Z,92.92
2022-11-13T01:16:33.931Z,92.61
2022-11-13T01:17:33.933Z,92.82
2022-11-13T01:18:33.923Z,92.92
2022-11-13T01:19:33.907Z,92.92
2022-11-13T01:20:33.940Z,92.77
2022-11-13T01:21:33.880Z,93.02
2022-11-13T01:22:33.869Z,93.12
2022-11-13T01:23:33.864Z,92.61
2022-11-13T01:24:33.853Z,92.92
2022-11-13T01:25:33.874Z,92.82
2022-11-13T01:26:33.821Z,92.30
2022-11-13T01:27:33.819Z,91.95
2022-11-13T01:28:33.803Z,92.20
2022-11-13T01:29:33.800Z,92.10
2022-11-13T01:30:33.917Z,92.87
2022-11-13T01:31:33.774Z,92.10
2022-11-13T01:32:33.778Z,92.61
2022-11-13T01:33:33.752Z,92.71
2022-11-13T01:34:33.743Z,92.36
2022-11-13T01:35:33.745Z,92.20
2022-11-13T01:36:33.708Z,92.82
2022-11-13T01:37:33.704Z,92.82
2022-11-13T01:38:36.589Z,92.82
2022-11-13T01:39:33.682Z,92.92
2022-11-13T01:40:33.670Z,92.71
2022-11-13T01:41:33.673Z,92.92
2022-11-13T01:42:33.648Z,92.82
2022-11-13T01:43:33.631Z,92.61
2022-11-13T01:44:33.620Z,93.12
2022-11-13T01:45:33.616Z,92.50
2022-11-13T01:46:33.733Z,92.50
2022-11-13T01:47:33.598Z,93.23
2022-11-13T01:48:33.590Z,93.06
2022-11-13T01:49:33.563Z,93.43
2022-11-13T01:50:33.571Z,93.12
2022-11-13T01:51:33.559Z,93.37
2022-11-13T01:52:33.534Z,93.16
2022-11-13T01:53:33.525Z,93.27
2022-11-13T01:54:33.514Z,93.16
2022-11-13T01:55:33.504Z,93.48
2022-11-13T01:56:33.497Z,94.09
2022-11-13T01:57:33.475Z,93.37
2022-11-13T01:58:33.473Z,94.20
2022-11-13T01:59:33.460Z,94.20
2022-11-13T02:00:33.444Z,94.15
2022-11-13T02:01:33.476Z,94.09
2022-11-13T02:02:33.533Z,94.40
2022-11-13T02:03:33.407Z,94.20
2022-11-13T02:04:33.402Z,94.20
2022-11-13T02:05:33.391Z,93.37
2022-11-13T02:06:33.388Z,94.40
2022-11-13T02:07:33.358Z,94.03
2022-11-13T02:08:33.346Z,93.48
2022-11-13T02:09:33.353Z,93.88
2022-11-13T02:10:33.336Z,93.93
2022-11-13T02:11:33.333Z,93.99
2022-11-13T02:12:33.317Z,94.03
2022-11-13T02:13:33.300Z,93.99
2022-11-13T02:14:33.287Z,94.20
2022-11-13T02:15:33.281Z,94.76
2022-11-13T02:16:33.283Z,94.24
2022-11-13T02:17:33.256Z,94.09
2022-11-13T02:18:33.355Z,94.24
2022-11-13T02:19:33.238Z,94.03
2022-11-13T02:20:33.226Z,94.34
2022-11-13T02:21:33.246Z,94.09
2022-11-13T02:22:33.222Z,93.83
2022-11-13T02:23:33.180Z,94.13
2022-11-13T02:24:35.830Z,94.60
2022-11-13T02:25:33.157Z,94.03
2022-11-13T02:26:33.166Z,94.65
2022-11-13T02:27:33.141Z,94.03
2022-11-13T07:14:31.086Z,91.75
2022-11-13T07:15:30.938Z,91.44
2022-11-13T07:16:39.038Z,91.03
2022-11-13T07:17:31.914Z,90.37
2022-11-13T07:18:31.205Z,91.20
2022-11-13T07:19:30.895Z,90.33
2022-11-13T07:20:30.884Z,89.92
2022-11-13T07:21:30.886Z,88.89
2022-11-13T07:22:30.865Z,88.78
2022-11-13T07:23:30.862Z,87.40
2022-11-13T07:24:30.857Z,87.81
2022-11-13T07:25:30.855Z,87.35
2022-11-13T07:26:30.835Z,86.02
2022-11-13T07:27:30.812Z,86.74
2022-11-13T07:28:31.226Z,85.87
2022-11-13T07:29:30.783Z,84.33
2022-11-13T07:30:30.888Z,84.01
2022-11-13T07:31:30.776Z,84.29
2022-11-13T07:32:30.750Z,83.84
2022-11-13T07:33:30.747Z,82.95
2022-11-13T07:34:30.737Z,83.22
2022-11-13T07:35:30.725Z,82.56
2022-11-13T07:36:30.731Z,82.42
2022-11-13T07:37:30.694Z,82.53
2022-11-13T07:38:31.072Z,83.14
2022-11-13T07:39:30.673Z,81.56
2022-11-13T07:40:30.662Z,81.11
2022-11-13T07:41:30.666Z,79.98
2022-11-13T07:42:30.677Z,80.25
2022-11-13T07:43:30.634Z,80.73
2022-11-13T07:44:53.491Z,81.34
2022-11-13T07:45:31.639Z,81.41
2022-11-13T07:46:30.730Z,81.51
2022-11-13T07:47:30.600Z,81.30
2022-11-13T07:48:31.111Z,80.55
2022-11-13T07:49:30.559Z,80.35
2022-11-13T07:50:30.668Z,78.39
2022-11-13T07:51:30.549Z,78.16
2022-11-13T07:52:30.537Z,78.97
2022-11-13T07:53:30.519Z,78.16
2022-11-13T07:54:30.520Z,78.25
2022-11-13T07:55:30.512Z,77.74
2022-11-13T07:56:30.503Z,77.95
2022-11-13T07:57:30.547Z,77.40
2022-11-13T07:58:30.849Z,77.29
2022-11-13T07:59:30.461Z,76.99
2022-11-13T08:00:30.441Z,76.78
2022-11-13T08:01:30.561Z,76.37
2022-11-13T08:02:30.531Z,77.50
2022-11-13T08:03:30.415Z,76.62
2022-11-13T08:04:30.396Z,76.82
2022-11-13T08:05:30.424Z,76.68
2022-11-13T08:06:30.382Z,76.72
2022-11-13T08:07:30.369Z,76.41
2022-11-13T08:08:30.648Z,77.03
2022-11-13T08:09:30.354Z,77.33
2022-11-13T08:10:30.336Z,77.84
2022-11-13T08:11:30.331Z,77.54
2022-11-13T08:12:30.305Z,77.47
2022-11-13T08:13:30.302Z,76.86
2022-11-13T08:14:30.289Z,76.65
2022-11-13T08:15:30.268Z,77.06
2022-11-13T08:16:30.282Z,77.68
2022-11-13T08:17:30.252Z,77.78
2022-11-13T08:18:30.738Z,77.71
2022-11-13T08:19:30.222Z,77.40
2022-11-13T08:20:30.225Z,78.02
2022-11-13T08:21:30.236Z,77.10
2022-11-13T08:22:30.194Z,76.93
2022-11-13T08:23:30.180Z,77.61
2022-11-13T08:24:30.180Z,77.75
2022-11-13T08:25:30.156Z,77.75
2022-11-13T08:26:30.199Z,77.85
2022-11-13T08:27:30.138Z,76.93
2022-11-13T08:28:30.578Z,77.44
2022-11-13T08:29:30.114Z,77.44
2022-11-13T08:30:30.107Z,77.85
2022-11-13T08:31:30.113Z,77.75
2022-11-13T08:32:30.082Z,78.36
2022-11-13T08:33:30.072Z,78.27
2022-11-13T08:34:30.177Z,78.06
2022-11-13T08:35:30.059Z,77.78
2022-11-13T08:36:30.065Z,77.65
2022-11-13T08:37:30.019Z,77.03
2022-11-13T08:38:30.330Z,77.65
2022-11-13T08:39:30.006Z,77.99
2022-11-13T08:40:29.997Z,78.06
2022-11-13T08:41:29.999Z,78.06
2022-11-13T08:42:29.974Z,78.16
2022-11-13T08:43:29.979Z,78.78
2022-11-13T08:44:29.941Z,79.84
2022-11-13T08:45:29.936Z,78.88
2022-11-13T08:46:29.937Z,78.98
2022-11-13T08:47:29.909Z,78.27
2022-11-13T08:48:30.386Z,78.47
2022-11-13T08:49:29.892Z,78.78
2022-11-13T08:50:29.996Z,78.88
2022-11-13T08:51:29.878Z,78.36
2022-11-13T08:52:29.865Z,78.36
2022-11-13T08:53:29.849Z,78.78
2022-11-13T08:54:29.845Z,78.67
2022-11-13T08:55:29.822Z,78.33
2022-11-13T08:56:29.876Z,78.36
2022-11-13T08:57:29.818Z,77.71
2022-11-13T08:58:30.040Z,77.61
2022-11-13T08:59:29.773Z,77.65
2022-11-13T09:00:29.764Z,77.51
2022-11-13T09:01:29.761Z,77.81
2022-11-13T09:02:29.763Z,76.79
2022-11-13T09:03:29.862Z,77.61
2022-11-13T09:04:29.715Z,77.10
2022-11-13T09:05:29.710Z,77.47
2022-11-13T09:06:29.814Z,76.86
2022-11-13T09:07:29.753Z,76.45
2022-11-13T09:08:29.891Z,75.93
2022-11-13T09:09:29.667Z,75.97
2022-11-13T09:10:29.649Z,76.86
2022-11-13T09:11:29.643Z,77.37
2022-11-13T09:12:29.671Z,77.58
2022-11-13T09:13:29.617Z,77.88
2022-11-13T09:14:29.603Z,76.75
2022-11-13T09:15:29.604Z,77.26
2022-11-13T09:16:29.587Z,76.86
2022-11-13T09:17:29.600Z,76.55
2022-11-13T09:18:30.000Z,77.06
2022-11-13T09:19:29.556Z,75.73
2022-11-13T09:20:29.544Z,75.93
2022-11-13T09:21:29.530Z,75.79
2022-11-13T09:22:29.648Z,76.24
2022-11-13T09:23:29.524Z,76.62
2022-11-13T09:24:29.493Z,76.51
2022-11-13T09:25:35.848Z,76.07
2022-11-13T09:26:30.478Z,74.66
2022-11-13T09:27:29.483Z,75.04
2022-11-13T09:28:29.874Z,74.63
2022-11-13T09:29:29.437Z,74.98
2022-11-13T09:30:29.434Z,75.11
2022-11-13T09:31:29.424Z,74.70
2022-11-13T09:32:29.442Z,75.11
2022-11-13T09:33:29.469Z,74.90
2022-11-13T09:34:29.393Z,74.29
2022-11-13T09:35:29.396Z,73.33
2022-11-13T09:36:29.357Z,73.03
2022-11-13T09:37:29.370Z,72.99
2022-11-13T09:38:29.798Z,72.48
2022-11-13T09:39:29.334Z,72.17
2022-11-13T09:40:29.329Z,72.34
2022-11-13T09:41:29.307Z,70.78
2022-11-13T09:42:29.301Z,71.29
2022-11-13T09:43:29.286Z,70.43
2022-11-13T09:44:29.273Z,69.82
2022-11-13T09:45:29.261Z,69.18
2022-11-13T09:46:29.250Z,68.12
2022-11-13T09:47:29.257Z,68.23
2022-11-13T09:48:29.645Z,67.79
2022-11-13T09:49:29.222Z,66.97
2022-11-13T09:50:29.207Z,66.66
2022-11-13T09:51:29.195Z,65.81
2022-11-13T09:52:29.191Z,66.09
2022-11-13T09:53:29.174Z,66.30
2022-11-13T09:54:29.275Z,65.99
2022-11-13T09:55:29.154Z,65.45
2022-11-13T09:56:29.134Z,65.25
2022-11-13T09:57:29.145Z,65.31
2022-11-13T09:58:29.439Z,64.60
2022-11-13T09:59:29.099Z,65.19
2022-11-13T10:00:29.093Z,63.93
2022-11-13T10:01:29.161Z,63.29
2022-11-13T10:02:29.095Z,63.46
2022-11-13T10:03:54.087Z,62.93
2022-11-13T10:04:30.088Z,62.62
2022-11-13T10:05:29.031Z,62.08
2022-11-13T10:06:29.030Z,61.75
2022-11-13T10:07:29.023Z,61.04
2022-11-13T10:08:29.467Z,59.92
2022-11-13T10:09:28.993Z,60.20
2022-11-13T10:10:29.111Z,59.86
2022-11-13T10:11:28.993Z,59.97
2022-11-13T10:12:28.980Z,58.54
2022-11-13T10:13:28.953Z,59.03
2022-11-13T10:14:28.931Z,58.69
2022-11-13T10:15:28.923Z,58.49
2022-11-13T10:16:28.905Z,57.24
2022-11-13T10:17:28.953Z,58.16
2022-11-13T10:18:29.337Z,57.93
2022-11-13T10:19:28.886Z,57.90
2022-11-13T10:20:28.870Z,57.90
2022-11-13T10:21:28.867Z,56.86
2022-11-13T10:22:33.954Z,56.13
2022-11-13T10:23:30.284Z,55.82
2022-11-13T10:24:28.829Z,55.65
2022-11-13T10:25:28.827Z,55.93
2022-11-13T10:26:28.927Z,55.49
2022-11-13T10:27:29.003Z,55.49
2022-11-13T10:28:49.654Z,54.08
2022-11-13T10:29:29.778Z,53.58
2022-11-13T10:30:28.749Z,53.47
2022-11-13T10:31:28.744Z,53.27
2022-11-13T10:32:28.749Z,53.58
2022-11-13T10:33:29.052Z,53.65
2022-11-13T10:34:28.706Z,53.14
2022-11-13T10:35:28.715Z,53.02
2022-11-13T10:36:28.686Z,52.31
2022-11-13T10:37:28.686Z,51.93
2022-11-13T10:38:28.671Z,53.14
2022-11-13T10:39:28.659Z,53.14
2022-11-13T10:40:28.659Z,52.23
2022-11-13T10:41:28.633Z,51.93
2022-11-13T10:42:28.752Z,51.50
2022-11-13T10:43:29.037Z,51.91
2022-11-13T10:44:28.590Z,50.80
2022-11-13T10:45:28.588Z,51.00
2022-11-13T10:46:28.576Z,50.27
2022-11-13T10:48:01.897Z,50.67
2022-11-13T10:48:30.026Z,50.19
2022-11-13T10:49:28.548Z,50.19
2022-11-13T10:50:28.534Z,51.18
2022-11-13T10:51:28.525Z,50.27
2022-11-13T10:52:28.533Z,50.35
2022-11-13T10:53:28.802Z,50.55
2022-11-13T10:54:28.485Z,50.52
2022-11-13T10:55:28.472Z,48.41
2022-11-13T10:56:28.458Z,48.61
2022-11-13T10:57:28.479Z,48.50
2022-11-13T10:58:29.123Z,48.61
2022-11-13T10:59:28.433Z,48.81
2022-11-13T11:00:28.413Z,48.71
2022-11-13T11:01:28.458Z,48.38
2022-11-13T11:02:28.412Z,48.71
2022-11-13T11:03:28.395Z,48.58
2022-11-13T11:04:28.373Z,49.09
2022-11-13T11:05:28.373Z,49.21
2022-11-13T11:06:48.714Z,49.09
2022-11-13T11:07:29.442Z,49.19
2022-11-13T11:08:28.693Z,48.26
2022-11-13T11:09:28.324Z,48.96
2022-11-13T11:10:28.311Z,48.96
2022-11-13T11:11:28.296Z,48.34
2022-11-13T11:12:31.132Z,48.44
2022-11-13T11:13:28.708Z,49.12
2022-11-13T11:14:28.380Z,46.78
2022-11-13T11:15:28.254Z,45.87
2022-11-13T11:16:28.243Z,46.08
2022-11-13T11:17:28.239Z,47.28
2022-11-13T11:18:28.646Z,46.86
2022-11-13T11:19:28.203Z,46.88
2022-11-13T11:20:28.197Z,46.86
2022-11-13T11:21:28.179Z,46.26
2022-11-13T11:22:28.167Z,46.56
2022-11-13T11:23:28.181Z,46.06
2022-11-13T11:24:28.145Z,46.68
2022-11-13T11:25:28.148Z,46.38
2022-11-13T11:26:28.131Z,46.18
2022-11-13T11:27:28.119Z,46.78
2022-11-13T11:28:28.451Z,46.58
2022-11-13T11:29:28.093Z,46.96
2022-11-13T11:30:28.192Z,46.26
2022-11-13T11:31:28.069Z,46.76
2022-11-13T11:32:28.057Z,46.36
2022-11-13T11:33:28.069Z,46.64
2022-11-13T11:34:28.037Z,45.01
2022-11-13T11:35:28.048Z,45.31
2022-11-13T11:36:28.020Z,45.59
2022-11-13T11:37:28.024Z,46.49
2022-11-13T11:38:28.347Z,46.37
2022-11-13T11:39:27.987Z,46.07
2022-11-13T11:40:27.986Z,44.64
2022-11-13T11:41:27.962Z,43.94
2022-11-13T11:42:27.960Z,43.84
2022-11-13T11:43:27.987Z,44.46
2022-11-13T11:44:27.940Z,44.08
2022-11-13T11:45:27.912Z,44.71
2022-11-13T11:46:28.027Z,45.21
2022-11-13T11:47:27.902Z,44.59
2022-11-13T11:48:28.289Z,44.28
2022-11-13T11:49:27.869Z,44.81
2022-11-13T11:50:27.865Z,43.90
2022-11-13T11:51:27.850Z,44.53
2022-11-13T11:52:27.847Z,45.35
2022-11-13T11:53:27.830Z,44.97
2022-11-13T11:54:27.829Z,45.39
2022-11-13T11:55:27.809Z,46.80
2022-11-13T11:56:27.793Z,45.79
2022-11-13T11:57:27.785Z,44.77
2022-11-13T11:58:28.076Z,47.08
2022-11-13T11:59:27.769Z,45.65
2022-11-13T12:00:27.751Z,46.36
2022-11-13T12:01:27.743Z,45.61
2022-11-13T12:02:27.842Z,44.68
2022-11-13T12:03:27.737Z,43.86
2022-11-13T12:04:27.710Z,43.56
2022-11-13T12:05:27.762Z,44.34
2022-11-13T12:06:27.688Z,42.91
2022-11-13T12:07:27.784Z,42.61
2022-11-13T12:08:28.010Z,42.94
2022-11-13T12:09:27.659Z,43.14
2022-11-13T12:10:27.646Z,43.46
2022-11-13T12:11:27.634Z,43.26
2022-11-13T12:12:27.610Z,43.38
2022-11-13T12:13:27.641Z,44.28
2022-11-13T12:14:27.602Z,44.38
2022-11-13T12:15:27.588Z,43.36
2022-11-13T12:16:27.582Z,43.94
2022-11-13T12:17:27.554Z,43.14
2022-11-13T12:18:28.075Z,43.24
2022-11-13T12:19:27.546Z,43.46
2022-11-13T12:20:27.526Z,43.46
2022-11-13T12:21:27.512Z,43.06
2022-11-13T12:22:30.819Z,43.84
2022-11-13T12:23:27.512Z,42.68
2022-11-13T12:24:27.480Z,43.50
2022-11-13T12:25:27.465Z,43.90
2022-11-13T12:26:27.472Z,43.70
2022-11-13T12:27:27.472Z,44.00
2022-11-13T12:28:27.899Z,44.18
2022-11-13T12:29:27.419Z,44.99
2022-11-13T12:30:27.418Z,44.36
2022-11-13T12:31:27.412Z,44.14
2022-11-13T12:32:27.389Z,44.24
2022-11-13T12:33:27.396Z,44.14
2022-11-13T12:34:27.536Z,43.44
2022-11-13T12:35:27.356Z,43.72
2022-11-13T12:36:27.353Z,43.22
2022-11-13T12:37:27.360Z,43.30
2022-11-13T12:38:27.913Z,42.90
2022-11-13T12:39:27.335Z,42.90
2022-11-13T12:40:27.329Z,41.99
2022-11-13T12:41:27.299Z,42.27
2022-11-13T12:42:27.290Z,41.57
2022-11-13T12:43:27.296Z,42.25
2022-11-13T12:44:27.269Z,41.85
2022-11-13T12:45:27.248Z,41.03
2022-11-13T12:46:27.246Z,41.33
2022-11-13T12:47:27.235Z,40.83
2022-11-13T12:48:27.624Z,41.05
2022-11-13T12:49:27.222Z,41.83
2022-11-13T12:50:31.713Z,42.71
2022-11-13T12:51:28.191Z,41.03
2022-11-13T12:52:27.176Z,41.63
2022-11-13T12:53:27.190Z,39.63
2022-11-13T12:54:27.158Z,41.85
2022-11-13T12:55:27.156Z,41.93
2022-11-13T12:56:27.139Z,40.91
2022-11-13T12:57:30.309Z,41.60
2022-11-13T12:58:27.556Z,42.27
2022-11-13T12:59:31.533Z,40.75
2022-11-13T13:00:27.102Z,39.62
2022-11-13T13:01:27.201Z,38.72
2022-11-13T13:02:27.070Z,38.32
2022-11-13T13:03:27.048Z,39.72
2022-11-13T13:04:27.057Z,39.70
2022-11-13T13:05:27.035Z,39.80
2022-11-13T13:06:27.138Z,39.38
2022-11-13T13:07:27.074Z,37.87
2022-11-13T13:08:27.384Z,37.38
2022-11-13T13:09:26.996Z,38.39
2022-11-13T13:10:26.979Z,38.62
2022-11-13T13:11:26.970Z,39.62
2022-11-13T13:12:26.948Z,38.54
2022-11-13T13:13:26.954Z,38.42
2022-11-13T13:14:26.981Z,38.24
2022-11-13T13:15:26.920Z,37.92
2022-11-13T13:16:26.919Z,38.34
2022-11-13T13:17:26.889Z,38.04
2022-11-13T13:18:27.304Z,38.54
2022-11-13T13:19:26.879Z,37.92
2022-11-13T13:20:26.891Z,38.22
2022-11-13T13:21:26.853Z,39.12
2022-11-13T13:22:26.974Z,36.80
2022-11-13T13:23:26.832Z,37.30
2022-11-13T13:24:26.814Z,38.32
2022-11-13T13:25:26.825Z,38.32
2022-11-13T13:26:26.810Z,39.62
2022-11-13T13:27:26.790Z,39.02
2022-11-13T13:28:27.075Z,39.04
2022-11-13T13:29:26.772Z,38.84
2022-11-13T13:30:26.768Z,39.64
2022-11-13T13:31:26.749Z,39.76
2022-11-13T13:32:26.733Z,40.16
2022-11-13T13:33:26.735Z,39.56
2022-11-13T13:34:29.918Z,39.54
2022-11-13T13:35:27.736Z,39.34
2022-11-13T13:36:26.701Z,39.94
2022-11-13T13:37:26.681Z,38.54
2022-11-13T13:38:27.067Z,38.54
2022-11-13T13:39:26.664Z,38.14
2022-11-13T13:40:26.641Z,39.42
2022-11-13T13:41:26.650Z,38.32
2022-11-13T13:42:26.622Z,39.32
2022-11-13T13:43:26.602Z,39.14
2022-11-13T13:44:26.601Z,39.86
2022-11-13T13:45:26.585Z,38.94
2022-11-13T13:46:26.602Z,39.34
2022-11-13T13:47:26.572Z,39.86
2022-11-13T13:48:26.763Z,39.56
2022-11-13T13:49:26.549Z,40.75
2022-11-13T13:50:26.528Z,40.37
2022-11-13T13:51:26.537Z,39.89
2022-11-13T13:52:26.511Z,40.97
2022-11-13T13:53:26.488Z,40.97
2022-11-13T13:54:26.594Z,39.95
2022-11-13T13:55:26.485Z,39.86
2022-11-13T13:56:26.471Z,38.96
2022-11-13T13:57:26.470Z,39.84
2022-11-13T13:58:26.665Z,39.54
2022-11-13T13:59:26.426Z,40.04
2022-11-13T14:00:26.427Z,40.16
2022-11-13T14:01:26.452Z,39.86
2022-11-13T14:02:26.399Z,39.87
2022-11-13T14:03:26.404Z,40.59
2022-11-13T14:04:26.370Z,41.09
2022-11-13T14:05:26.362Z,41.77
2022-11-13T14:06:26.353Z,40.47
2022-11-13T14:07:26.438Z,41.58
2022-11-13T14:08:26.551Z,40.97
2022-11-13T14:09:26.329Z,40.75
2022-11-13T14:10:26.429Z,40.95
2022-11-13T14:11:26.296Z,40.86
2022-11-13T14:12:26.286Z,40.69
2022-11-13T14:13:26.275Z,41.61
2022-11-13T14:14:26.293Z,41.91
2022-11-13T14:15:26.245Z,42.66
2022-11-13T14:16:26.240Z,43.10
2022-11-13T14:17:26.236Z,43.19
2022-11-13T14:18:26.516Z,43.24
2022-11-13T14:19:26.228Z,43.36
2022-11-13T14:20:26.214Z,43.88
2022-11-13T14:21:26.185Z,44.31
2022-11-13T14:22:26.173Z,44.53
2022-11-13T14:23:26.156Z,44.63
2022-11-13T14:24:26.147Z,45.13
2022-11-13T14:25:26.209Z,45.23
2022-11-13T14:26:26.246Z,46.06
2022-11-13T14:27:26.123Z,45.45
2022-11-13T14:28:26.463Z,45.25
2022-11-13T14:29:26.100Z,45.25
2022-11-13T14:30:26.082Z,45.25
2022-11-13T14:31:26.097Z,46.86
2022-11-13T14:32:26.065Z,46.56
2022-11-13T14:33:26.429Z,46.48
2022-11-13T14:34:26.065Z,47.19
2022-11-13T14:35:26.037Z,48.29
2022-11-13T14:36:26.039Z,47.19
2022-11-13T14:37:26.011Z,47.28
2022-11-13T14:38:26.003Z,48.39
2022-11-13T14:39:26.002Z,48.29
2022-11-13T14:40:25.982Z,48.01
2022-11-13T14:41:25.986Z,50.40
2022-11-13T14:42:26.062Z,48.32
2022-11-13T14:43:26.388Z,48.32
2022-11-13T14:44:30.770Z,48.72
2022-11-13T14:45:26.914Z,49.24
2022-11-13T14:46:25.923Z,49.24
2022-11-13T14:47:25.895Z,49.65
2022-11-13T14:48:25.881Z,49.85
2022-11-13T14:49:25.883Z,50.07
2022-11-13T14:50:25.897Z,51.89
2022-11-13T14:51:25.891Z,51.59
2022-11-13T14:52:25.851Z,51.08
2022-11-13T14:53:25.941Z,50.30
2022-11-13T14:54:25.821Z,50.50
2022-11-13T14:55:25.858Z,49.52
2022-11-13T14:56:25.818Z,49.74
2022-11-13T14:57:25.790Z,50.75
2022-11-13T14:58:25.915Z,51.15
2022-11-13T14:59:25.759Z,50.37
2022-11-13T15:00:25.753Z,49.66
2022-11-13T15:01:25.783Z,50.57
2022-11-13T15:02:25.732Z,50.57
2022-11-13T15:03:25.772Z,50.19
2022-11-13T15:04:25.705Z,50.47
2022-11-13T15:05:25.694Z,51.78
2022-11-13T15:06:25.680Z,51.89
2022-11-13T15:07:25.755Z,52.69
2022-11-13T15:08:25.661Z,53.30
2022-11-13T15:09:25.660Z,52.79
2022-11-13T15:10:25.635Z,53.42
2022-11-13T15:11:25.627Z,53.72
2022-11-13T15:12:25.643Z,53.63
2022-11-13T15:13:25.758Z,53.93
2022-11-13T15:14:25.728Z,53.83
2022-11-13T15:15:25.587Z,53.05
2022-11-13T15:16:25.579Z,53.25
2022-11-13T15:17:25.575Z,53.14
2022-11-13T15:18:25.559Z,53.25
2022-11-13T15:19:25.546Z,54.36
2022-11-13T15:20:25.554Z,54.96
2022-11-13T15:21:25.511Z,54.25
2022-11-13T15:22:27.567Z,55.69
2022-11-13T15:23:25.718Z,56.40
2022-11-13T15:24:26.294Z,57.62
2022-11-13T15:25:25.486Z,56.91
2022-11-13T15:26:25.469Z,57.44
2022-11-13T15:27:25.462Z,57.54
2022-11-13T15:28:25.435Z,57.67
2022-11-13T15:29:25.425Z,57.87
2022-11-13T15:30:25.536Z,57.78
2022-11-13T15:31:25.400Z,58.18
2022-11-13T15:32:25.433Z,58.00
2022-11-13T15:33:25.491Z,58.81
2022-11-13T15:34:25.400Z,57.80
2022-11-13T15:35:25.464Z,57.70
2022-11-13T15:36:25.350Z,57.70
2022-11-13T15:37:25.359Z,57.73
2022-11-13T15:38:25.334Z,58.41
2022-11-13T15:39:25.314Z,60.06
2022-11-13T15:40:25.300Z,58.44
2022-11-13T15:41:25.308Z,58.26
2022-11-13T15:42:25.291Z,59.27
2022-11-13T15:43:25.311Z,60.28
2022-11-13T15:44:25.256Z,60.01
2022-11-13T15:45:25.245Z,60.49
2022-11-13T15:46:25.352Z,60.39
2022-11-13T15:47:25.239Z,61.43
2022-11-13T15:48:25.223Z,61.02
2022-11-13T15:49:25.199Z,61.13
2022-11-13T15:50:25.202Z,60.93
2022-11-13T15:51:25.177Z,60.75
2022-11-13T15:52:25.197Z,61.56
2022-11-13T15:53:25.157Z,61.76
2022-11-13T15:54:25.154Z,62.57
2022-11-13T15:55:25.155Z,62.57
2022-11-13T15:56:25.121Z,62.81
2022-11-13T15:57:25.130Z,62.98
2022-11-13T15:58:25.963Z,62.40
2022-11-13T15:59:25.103Z,62.84
2022-11-13T16:00:25.373Z,63.75
2022-11-13T16:01:25.132Z,63.95
2022-11-13T16:02:25.189Z,63.98
2022-11-13T16:03:25.042Z,63.88
2022-11-13T16:04:30.189Z,64.70
2022-11-13T16:05:26.046Z,65.20
2022-11-13T16:06:25.013Z,65.84
2022-11-13T16:07:25.220Z,65.64
2022-11-13T16:08:24.992Z,64.73
2022-11-13T16:09:24.987Z,64.22
2022-11-13T16:10:25.306Z,63.81
2022-11-13T16:11:24.963Z,64.62
2022-11-13T16:12:24.953Z,65.88
2022-11-13T16:13:24.951Z,66.66
2022-11-13T16:14:25.511Z,66.49
2022-11-13T16:15:24.915Z,66.79
2022-11-13T16:16:24.910Z,65.06
2022-11-13T16:17:24.885Z,65.26
2022-11-13T16:18:25.023Z,65.09
2022-11-13T16:19:24.861Z,65.09
2022-11-13T16:20:24.857Z,66.41
2022-11-13T16:21:24.851Z,67.33
2022-11-13T16:22:24.838Z,67.02
2022-11-13T16:23:24.834Z,66.35
2022-11-13T16:24:24.813Z,65.91
2022-11-13T16:25:24.802Z,66.11
2022-11-13T16:26:24.782Z,65.63
2022-11-13T16:27:24.786Z,65.83
2022-11-13T16:28:24.820Z,65.83
2022-11-13T16:29:24.757Z,65.63
2022-11-13T16:30:24.751Z,66.24
2022-11-13T16:31:24.743Z,66.96
2022-11-13T16:32:24.725Z,67.26
2022-11-13T16:33:24.714Z,68.21
2022-11-13T16:34:24.822Z,67.80
2022-11-13T16:35:24.686Z,68.71
2022-11-13T16:36:24.683Z,68.82
2022-11-13T16:37:24.667Z,69.15
2022-11-13T16:38:24.649Z,68.65
2022-11-13T16:39:24.652Z,68.75
2022-11-13T16:40:24.634Z,68.04
2022-11-13T16:41:24.633Z,67.83
2022-11-13T16:42:29.804Z,67.93
2022-11-13T16:43:25.973Z,67.55
2022-11-13T16:44:24.596Z,67.73
2022-11-13T16:45:24.582Z,69.36
2022-11-13T16:46:24.574Z,69.56
2022-11-13T16:47:24.549Z,70.72
2022-11-13T16:48:24.535Z,69.87
2022-11-13T16:49:24.551Z,69.90
2022-11-13T16:50:24.700Z,69.49
2022-11-13T16:51:24.506Z,69.59
2022-11-13T16:52:24.488Z,69.59
2022-11-13T16:53:24.478Z,69.70
2022-11-13T16:54:24.481Z,69.29
2022-11-13T16:55:24.471Z,69.22
2022-11-13T16:56:24.456Z,69.42
2022-11-13T16:57:24.438Z,70.34
2022-11-13T16:58:24.422Z,70.54
2022-11-13T16:59:24.463Z,70.24
2022-11-13T17:00:24.400Z,70.54
2022-11-13T17:01:24.432Z,70.78
2022-11-13T17:02:24.376Z,70.68
2022-11-13T17:03:24.372Z,71.22
2022-11-13T17:04:24.366Z,71.53
2022-11-13T17:05:24.372Z,70.72
2022-11-13T17:06:24.446Z,70.40
2022-11-13T17:07:24.363Z,71.63
2022-11-13T17:08:24.309Z,71.63
2022-11-13T17:09:24.306Z,71.33
2022-11-13T17:10:31.217Z,70.61
2022-11-13T17:11:25.281Z,70.51
2022-11-13T17:12:24.269Z,71.53
2022-11-13T17:13:24.255Z,72.24
2022-11-13T17:14:24.238Z,72.69
2022-11-13T17:15:24.251Z,73.10
2022-11-13T17:16:24.222Z,72.96
2022-11-13T17:17:24.216Z,72.69
2022-11-13T17:18:24.203Z,72.99
2022-11-13T17:19:24.192Z,73.10
2022-11-13T17:20:24.203Z,73.03
2022-11-13T17:21:24.163Z,73.23
2022-11-13T17:22:24.269Z,72.72
2022-11-13T17:23:24.146Z,73.13
2022-11-13T17:24:24.134Z,74.05
2022-11-13T17:25:24.141Z,73.84
2022-11-13T17:26:24.152Z,74.05
2022-11-13T17:27:24.096Z,73.77
2022-11-13T17:28:24.080Z,74.59
2022-11-13T17:29:24.087Z,74.63
2022-11-13T17:30:24.078Z,75.41
2022-11-13T17:31:24.084Z,75.55
2022-11-13T17:32:24.038Z,75.55
2022-11-13T17:33:24.028Z,75.48
2022-11-13T17:34:24.036Z,75.85
2022-11-13T17:35:24.006Z,76.40
2022-11-13T17:36:24.011Z,76.30
2022-11-13T17:37:25.333Z,75.68
2022-11-13T17:38:24.098Z,75.79
2022-11-13T17:39:23.965Z,75.48